Weather observations for the past three days for
Farmington Airport
Metric (Imperial)
Date Time (cdt) Wind (kph) Vis. (km) Weather Sky Cond. Temperature (ºC) Relative Humidity Wind Chill (°C) Heat Index (°C) Pressure Precipitation (cm)
Air Dwpt 6 hour altimeter (cm) sea level (mb) 1 hr 3 hr 6 hr
Max. Min.
10 10:56 N 17 16.09 Fair CLR 22.2 5.6 34% 76.48 1019.9
10 09:56 N 15 16.09 Mostly Cloudy BKN095 18.3 7.8 51% 76.43 1019.5
10 08:56 N 17 G 28 16.09 A Few Clouds FEW100 18.9 10 56% 76.38 1018.6
10 07:56 N 7 16.09 Partly Cloudy SCT100 16.1 11.7 75% 76.33 1018.1
10 06:56 N 9 16.09 Light Rain OVC100 15 13.3 18.9 15 90% 76.25 1017.1
10 05:56 NW 11 16.09 Mostly Cloudy BKN100 15.6 13.9 90% 76.17 1016.0
10 04:56 N 7 16.09 Mostly Cloudy BKN110 15.6 12.8 84% 76.1 1014.9
10 03:56 NW 6 16.09 Mostly Cloudy BKN110 16.1 12.8 81% 76.07 1014.6
10 02:56 S 6 16.09 Partly Cloudy SCT110 16.1 13.3 84% 76.02 1014.0
10 01:56 Calm 16.09 Fair CLR 17.8 11.7 68% 76.05 1014.1
10 00:56 NW 6 16.09 Mostly Cloudy BKN110 18.9 11.7 26.7 15.6 63% 76.07 1014.6
09 23:56 SW 13 16.09 Mostly Cloudy BKN110 18.9 10.6 59% 75.92 1012.6
09 22:56 SW 9 16.09 Fair CLR 17.2 11.1 68% 75.92 1012.3
09 21:56 Calm 16.09 Fair CLR 16.1 12.8 81% 75.9 1012.3
09 20:56 Calm 16.09 Fair CLR 18.3 11.7 66% 75.82 1011.4
09 19:56 SW 6 16.09 Fair CLR 21.7 8.9 44% 75.77 1010.8
09 18:56 W 7 16.09 Fair CLR 26.7 8.3 28.9 25.6 31% 26 75.74 1010.1
09 17:56 W 6 16.09 Fair CLR 28.3 6.7 25% 27 75.74 1009.8
09 16:56 W 17 16.09 Fair CLR 28.3 6.1 24% 27 75.72 1009.6
09 15:56 W 13 16.09 A Few Clouds FEW080 28.3 8.9 30% 27 75.74 1009.9
09 14:56 W 17 16.09 Fair CLR 27.2 8.9 32% 27 75.77 1010.4
09 13:56 Vrbl 11 16.09 Fair CLR 26.7 10.6 37% 26 75.79 1010.5
09 12:56 W 15 G 26 16.09 Fair CLR 25.6 10 25.6 12.2 37% 26 75.79 1010.7
09 11:56 Vrbl 9 16.09 Fair CLR 25 11.7 43% 26 75.84 1011.3
09 10:56 Vrbl 9 16.09 Fair CLR 22.8 12.8 53% 75.84 1011.5
09 09:56 SW 11 16.09 Fair CLR 20 15 73% 75.84 1011.4
09 08:56 W 7 16.09 Partly Cloudy SCT007 16.7 14.4 86% 75.82 1011.3
09 07:56 NW 6 16.09 Overcast OVC003 12.8 12.8 100% 75.79 1011.1
09 06:56 W 9 0.80 Fog OVC003 12.2 12.2 13.9 11.7 100% 75.77 1010.8 0.13
09 05:56 Calm 0.24 Fog OVC003 12.2 11.7 97% 75.72 1010.0
09 04:56 SW 7 1.21 Fog/Mist OVC003 12.8 12.8 100% 75.74 1010.1
09 03:56 SW 9 16.09 Mostly Cloudy BKN003 12.8 12.8 100% 75.72 1010.0 0.13
09 02:56 Calm 16.09 Overcast OVC005 12.8 12.8 100% 75.69 1009.5
09 01:56 E 6 16.09 Overcast BKN005 OVC043 13.3 13.3 100% 75.69 1009.7 0.13
09 00:56 SE 7 6.44 Heavy Rain Fog/Mist OVC005 13.9 13.9 21.1 13.9 100% 75.72 1009.9 0.71 1.35
08 23:56 N 11 11.27 Heavy Rain FEW007 BKN046 OVC055 13.9 13.9 100% 75.77 1010.7 0.64
08 22:56 N 17 16.09 Overcast BKN060 OVC090 15.6 13.3 86% 75.72 1009.7
08 21:56 S 7 16.09 Overcast SCT095 OVC110 17.2 10 63% 75.64 1008.7
08 20:56 S 15 16.09 Overcast FEW080 OVC100 18.9 10 56% 75.69 1009.4
08 19:56 S 17 16.09 Fair CLR 19.4 10.6 57% 75.64 1008.9
08 18:56 S 15 16.09 Fair CLR 21.1 11.1 26.1 21.1 53% 75.64 1009.2
08 17:56 S 22 16.09 A Few Clouds FEW065 25.6 10 37% 26 75.67 1009.5
08 16:56 S 13 16.09 Fair CLR 26.1 10 36% 26 75.69 1009.7
08 15:56 SW 13 16.09 A Few Clouds FEW120 23.3 10 43% 75.74 1010.5
08 14:56 SW 20 16.09 Mostly Cloudy BKN120 24.4 9.4 39% 25 75.79 1010.9
08 13:56 S 20 G 33 16.09 Fair CLR 24.4 10 40% 25 75.84 1011.8
08 12:56 SW 13 16.09 Fair CLR 23.9 10 23.9 12.2 42% 25 75.9 1012.6
08 11:56 S 19 16.09 Mostly Cloudy BKN110 22.8 9.4 43% 76 1014.0
08 10:56 S 17 G 26 16.09 Partly Cloudy SCT110 22.2 8.3 41% 76.05 1014.5
08 09:56 S 20 G 31 16.09 Fair CLR 21.1 8.9 46% 76.07 1015.0
08 08:56 S 15 16.09 Fair CLR 18.9 9.4 54% 76.1 1015.3
08 07:56 S 13 16.09 Fair CLR 15 8.3 64% 76.1 1015.5
08 06:56 S 9 16.09 Fair CLR 12.2 7.2 12.2 7.8 72% 76.1 1015.4
08 05:56 S 7 16.09 Fair CLR 8.3 6.1 86% 7 76.07 1014.9
08 04:56 S 7 16.09 Fair CLR 7.8 6.1 89% 7 76.1 1015.2
08 03:56 S 7 16.09 Fair CLR 8.3 6.1 86% 7 76.1 1015.3
08 02:56 S 13 16.09 Fair CLR 9.4 6.1 80% 8 76.1 1015.3
08 01:56 S 11 16.09 Fair CLR 8.9 5.6 80% 7 76.15 1016.0
08 00:56 S 11 16.09 Fair CLR 9.4 5.6 19.4 8.9 77% 8 76.17 1016.4
07 23:56 SW 9 16.09 Fair CLR 10 5.6 74% 9 76.2 1016.6
07 22:56 S 6 16.09 Fair CLR 10 4.4 68% 76.2 1016.7
07 21:56 S 6 16.09 Fair CLR 10.6 4.4 66% 76.17 1016.3
07 20:56 Calm 16.09 Fair CLR 12.2 4.4 59% 76.12 1015.8
07 19:56 S 7 16.09 Fair CLR 16.1 2.8 41% 76.1 1015.1
07 18:56 NW 7 16.09 Fair CLR 19.4 0.6 22.8 18.3 29% 76.07 1015.0
07 17:56 W 9 16.09 Fair CLR 21.1 0.6 26% 76.1 1015.6
07 16:56 SW 11 16.09 Mostly Cloudy BKN080 22.2 1.1 25% 76.12 1015.7
07 15:56 SW 15 G 28 16.09 Partly Cloudy SCT080 20 1.1 28% 76.15 1016.1
07 14:56 SW 11 16.09 A Few Clouds FEW075 19.4 1.1 30% 76.2 1016.8
07 13:56 NW 7 16.09 A Few Clouds FEW075 18.3 0.6 31% 76.25 1017.6
07 12:56 W 9 16.09 Fair CLR 18.3 0 18.3 6.1 29% 76.28 1017.9
07 11:56 SW 15 16.09 A Few Clouds FEW070 17.8 -0.6 29% 76.35 1019.0
Date Time (cdt) Wind (kph) Vis. (km) Weather Sky Cond. Air Dwpt Max. Min. Relative Humidity Wind Chill (°C) Heat Index (°C) altimeter (cm) sea level (mb) 1 hr 3 hr 6 hr
6 hour
Temperature (ºC) Pressure Precipitation (cm)